sensor_id;sensor_type;location;lat;lon;timestamp;pressure;altitude;pressure_sealevel;temperature;humidity
46366;BME280;72328;49.570;8.722;2023-11-22T00:03:50;100235.53;;;11.24;58.36
46366;BME280;72328;49.570;8.722;2023-11-22T00:07:51;100235.66;;;11.22;58.75
46366;BME280;72328;49.570;8.722;2023-11-22T00:11:52;100240.06;;;11.20;58.09
46366;BME280;72328;49.570;8.722;2023-11-22T00:15:52;100241.19;;;11.16;58.51
46366;BME280;72328;49.570;8.722;2023-11-22T00:19:53;100249.09;;;11.13;58.25
46366;BME280;72328;49.570;8.722;2023-11-22T00:23:54;100253.88;;;11.05;58.03
46366;BME280;72328;49.570;8.722;2023-11-22T00:27:54;100258.38;;;11.02;58.24
46366;BME280;72328;49.570;8.722;2023-11-22T00:31:55;100258.47;;;11.00;58.32
46366;BME280;72328;49.570;8.722;2023-11-22T00:35:56;100270.00;;;10.95;58.14
46366;BME280;72328;49.570;8.722;2023-11-22T00:39:58;100281.59;;;10.88;57.97
46366;BME280;72328;49.570;8.722;2023-11-22T00:44:01;100278.84;;;10.77;57.76
46366;BME280;72328;49.570;8.722;2023-11-22T00:48:01;100287.91;;;10.68;58.06
46366;BME280;72328;49.570;8.722;2023-11-22T00:52:02;100288.09;;;10.65;57.67
46366;BME280;72328;49.570;8.722;2023-11-22T00:56:04;100291.84;;;10.60;57.80
46366;BME280;72328;49.570;8.722;2023-11-22T01:00:07;100298.34;;;10.51;57.63
46366;BME280;72328;49.570;8.722;2023-11-22T01:04:11;100304.22;;;10.39;58.16
46366;BME280;72328;49.570;8.722;2023-11-22T01:08:12;100319.81;;;10.36;57.89
46366;BME280;72328;49.570;8.722;2023-11-22T01:12:14;100310.66;;;10.32;57.74
46366;BME280;72328;49.570;8.722;2023-11-22T01:16:14;100309.63;;;10.35;57.67
46366;BME280;72328;49.570;8.722;2023-11-22T01:20:16;100310.38;;;10.37;57.62
46366;BME280;72328;49.570;8.722;2023-11-22T01:24:16;100318.66;;;10.42;57.47
46366;BME280;72328;49.570;8.722;2023-11-22T01:28:17;100307.44;;;10.43;57.40
46366;BME280;72328;49.570;8.722;2023-11-22T01:32:21;100326.09;;;10.46;57.50
46366;BME280;72328;49.570;8.722;2023-11-22T01:36:21;100319.50;;;10.42;57.47
46366;BME280;72328;49.570;8.722;2023-11-22T01:40:22;100313.22;;;10.32;57.15
46366;BME280;72328;49.570;8.722;2023-11-22T01:44:23;100314.47;;;10.25;57.43
46366;BME280;72328;49.570;8.722;2023-11-22T01:48:24;100323.44;;;10.18;57.43
46366;BME280;72328;49.570;8.722;2023-11-22T01:52:25;100324.13;;;10.06;57.33
46366;BME280;72328;49.570;8.722;2023-11-22T01:56:26;100322.31;;;9.93;57.40
46366;BME280;72328;49.570;8.722;2023-11-22T02:00:27;100329.09;;;9.78;57.63
46366;BME280;72328;49.570;8.722;2023-11-22T02:04:31;100338.81;;;9.58;57.71
46366;BME280;72328;49.570;8.722;2023-11-22T02:08:32;100349.66;;;9.47;57.70
46366;BME280;72328;49.570;8.722;2023-11-22T02:12:32;100346.56;;;9.41;57.48
46366;BME280;72328;49.570;8.722;2023-11-22T02:16:33;100346.56;;;9.41;57.56
46366;BME280;72328;49.570;8.722;2023-11-22T02:20:34;100358.44;;;9.43;57.30
46366;BME280;72328;49.570;8.722;2023-11-22T02:24:35;100362.00;;;9.41;57.17
46366;BME280;72328;49.570;8.722;2023-11-22T02:28:35;100377.41;;;9.41;57.38
46366;BME280;72328;49.570;8.722;2023-11-22T02:32:36;100397.38;;;9.36;57.20
46366;BME280;72328;49.570;8.722;2023-11-22T02:36:37;100398.09;;;9.22;57.08
46366;BME280;72328;49.570;8.722;2023-11-22T02:40:38;100413.03;;;9.14;57.38
46366;BME280;72328;49.570;8.722;2023-11-22T02:44:42;100413.34;;;9.08;57.16
46366;BME280;72328;49.570;8.722;2023-11-22T02:48:42;100417.34;;;8.97;57.03
46366;BME280;72328;49.570;8.722;2023-11-22T02:52:44;100403.56;;;8.82;57.30
46366;BME280;72328;49.570;8.722;2023-11-22T02:56:44;100412.09;;;8.83;57.34
46366;BME280;72328;49.570;8.722;2023-11-22T03:00:45;100415.34;;;8.86;57.21
46366;BME280;72328;49.570;8.722;2023-11-22T03:04:46;100416.75;;;8.92;57.07
46366;BME280;72328;49.570;8.722;2023-11-22T03:08:46;100409.03;;;8.92;56.92
46366;BME280;72328;49.570;8.722;2023-11-22T03:12:50;100419.41;;;8.90;56.62
46366;BME280;72328;49.570;8.722;2023-11-22T03:16:50;100413.75;;;8.84;56.98
46366;BME280;72328;49.570;8.722;2023-11-22T03:20:51;100419.03;;;8.81;56.56
46366;BME280;72328;49.570;8.722;2023-11-22T03:24:54;100429.22;;;8.82;56.65
46366;BME280;72328;49.570;8.722;2023-11-22T03:28:55;100447.19;;;8.82;56.59
46366;BME280;72328;49.570;8.722;2023-11-22T03:32:55;100461.06;;;8.78;56.81
46366;BME280;72328;49.570;8.722;2023-11-22T03:36:56;100451.88;;;8.74;56.34
46366;BME280;72328;49.570;8.722;2023-11-22T03:40:57;100449.06;;;8.62;56.74
46366;BME280;72328;49.570;8.722;2023-11-22T03:44:58;100466.19;;;8.61;56.59
46366;BME280;72328;49.570;8.722;2023-11-22T03:49:00;100476.53;;;8.60;56.51
46366;BME280;72328;49.570;8.722;2023-11-22T03:53:00;100481.13;;;8.53;56.64
46366;BME280;72328;49.570;8.722;2023-11-22T03:57:01;100481.34;;;8.49;56.57
46366;BME280;72328;49.570;8.722;2023-11-22T04:01:02;100479.97;;;8.42;56.81
46366;BME280;72328;49.570;8.722;2023-11-22T04:05:03;100496.03;;;8.45;56.92
46366;BME280;72328;49.570;8.722;2023-11-22T04:09:04;100514.69;;;8.49;56.75
46366;BME280;72328;49.570;8.722;2023-11-22T04:13:04;100522.47;;;8.47;56.51
46366;BME280;72328;49.570;8.722;2023-11-22T04:17:05;100520.94;;;8.43;56.69
46366;BME280;72328;49.570;8.722;2023-11-22T04:21:07;100526.16;;;8.42;56.58
46366;BME280;72328;49.570;8.722;2023-11-22T04:25:08;100539.38;;;8.33;56.30
46366;BME280;72328;49.570;8.722;2023-11-22T04:29:13;100554.47;;;8.20;56.62
46366;BME280;72328;49.570;8.722;2023-11-22T04:33:14;100574.19;;;8.20;56.63
46366;BME280;72328;49.570;8.722;2023-11-22T04:37:15;100567.44;;;8.17;56.65
46366;BME280;72328;49.570;8.722;2023-11-22T04:41:15;100575.00;;;8.20;56.76
46366;BME280;72328;49.570;8.722;2023-11-22T04:45:16;100575.84;;;8.21;56.51
46366;BME280;72328;49.570;8.722;2023-11-22T04:49:17;100565.69;;;8.18;56.37
46366;BME280;72328;49.570;8.722;2023-11-22T04:53:19;100576.91;;;8.15;56.30
46366;BME280;72328;49.570;8.722;2023-11-22T04:57:22;100574.56;;;8.11;55.97
46366;BME280;72328;49.570;8.722;2023-11-22T05:01:23;100579.88;;;8.06;56.23
46366;BME280;72328;49.570;8.722;2023-11-22T05:05:23;100585.41;;;7.97;56.31
46366;BME280;72328;49.570;8.722;2023-11-22T05:09:24;100589.91;;;7.92;56.36
46366;BME280;72328;49.570;8.722;2023-11-22T05:13:25;100596.94;;;7.87;56.46
46366;BME280;72328;49.570;8.722;2023-11-22T05:17:25;100581.94;;;7.78;56.49
46366;BME280;72328;49.570;8.722;2023-11-22T05:21:26;100594.59;;;7.83;56.15
46366;BME280;72328;49.570;8.722;2023-11-22T05:25:27;100589.41;;;7.84;56.00
46366;BME280;72328;49.570;8.722;2023-11-22T05:29:27;100602.22;;;7.84;56.12
46366;BME280;72328;49.570;8.722;2023-11-22T05:33:28;100593.75;;;7.82;55.97
46366;BME280;72328;49.570;8.722;2023-11-22T05:37:29;100616.06;;;7.80;56.22
46366;BME280;72328;49.570;8.722;2023-11-22T05:41:30;100616.16;;;7.77;56.00
46366;BME280;72328;49.570;8.722;2023-11-22T05:45:31;100628.16;;;7.77;55.83
46366;BME280;72328;49.570;8.722;2023-11-22T05:49:32;100641.94;;;7.74;55.82
46366;BME280;72328;49.570;8.722;2023-11-22T05:53:32;100652.31;;;7.71;55.95
46366;BME280;72328;49.570;8.722;2023-11-22T05:57:33;100659.28;;;7.68;55.66
46366;BME280;72328;49.570;8.722;2023-11-22T06:01:34;100673.06;;;7.65;55.68
46366;BME280;72328;49.570;8.722;2023-11-22T06:05:34;100656.19;;;7.60;55.57
46366;BME280;72328;49.570;8.722;2023-11-22T06:09:35;100663.13;;;7.58;55.67
46366;BME280;72328;49.570;8.722;2023-11-22T06:13:36;100655.75;;;7.50;55.92
46366;BME280;72328;49.570;8.722;2023-11-22T06:17:37;100667.84;;;7.47;55.58
46366;BME280;72328;49.570;8.722;2023-11-22T06:21:37;100672.31;;;7.42;56.00
46366;BME280;72328;49.570;8.722;2023-11-22T06:25:42;100679.38;;;7.35;56.03
46366;BME280;72328;49.570;8.722;2023-11-22T06:29:44;100699.19;;;7.32;55.58
46366;BME280;72328;49.570;8.722;2023-11-22T06:33:44;100704.34;;;7.30;55.94
46366;BME280;72328;49.570;8.722;2023-11-22T06:37:45;100707.94;;;7.26;55.51
46366;BME280;72328;49.570;8.722;2023-11-22T06:41:46;100716.44;;;7.27;55.57
46366;BME280;72328;49.570;8.722;2023-11-22T06:45:51;100718.28;;;7.23;55.72
46366;BME280;72328;49.570;8.722;2023-11-22T06:49:51;100724.66;;;7.13;55.61
46366;BME280;72328;49.570;8.722;2023-11-22T06:53:52;100728.19;;;7.09;55.93
46366;BME280;72328;49.570;8.722;2023-11-22T06:57:54;100737.69;;;7.07;55.80
46366;BME280;72328;49.570;8.722;2023-11-22T07:01:55;100721.47;;;7.07;56.03
46366;BME280;72328;49.570;8.722;2023-11-22T07:05:59;100731.72;;;7.07;56.03
46366;BME280;72328;49.570;8.722;2023-11-22T07:09:59;100739.53;;;7.04;56.13
46366;BME280;72328;49.570;8.722;2023-11-22T07:14:00;100750.56;;;7.04;55.99
46366;BME280;72328;49.570;8.722;2023-11-22T07:18:01;100752.41;;;7.01;55.89
46366;BME280;72328;49.570;8.722;2023-11-22T07:22:02;100755.88;;;7.00;56.05
46366;BME280;72328;49.570;8.722;2023-11-22T07:26:04;100745.69;;;6.98;56.11
46366;BME280;72328;49.570;8.722;2023-11-22T07:30:07;100754.97;;;7.01;56.04
46366;BME280;72328;49.570;8.722;2023-11-22T07:34:09;100763.56;;;7.00;56.24
46366;BME280;72328;49.570;8.722;2023-11-22T07:38:11;100755.09;;;6.98;56.43
46366;BME280;72328;49.570;8.722;2023-11-22T07:42:12;100754.31;;;6.96;56.42
46366;BME280;72328;49.570;8.722;2023-11-22T07:46:13;100751.69;;;6.97;56.57
46366;BME280;72328;49.570;8.722;2023-11-22T07:50:14;100749.81;;;7.02;56.74
46366;BME280;72328;49.570;8.722;2023-11-22T07:54:14;100757.25;;;7.08;56.61
46366;BME280;72328;49.570;8.722;2023-11-22T07:58:15;100757.03;;;7.14;56.71
46366;BME280;72328;49.570;8.722;2023-11-22T08:02:16;100761.97;;;7.20;56.95
46366;BME280;72328;49.570;8.722;2023-11-22T08:06:22;100757.81;;;7.39;57.13
46366;BME280;72328;49.570;8.722;2023-11-22T08:10:22;100754.81;;;7.71;58.31
46366;BME280;72328;49.570;8.722;2023-11-22T08:14:25;100750.81;;;7.86;59.71
46366;BME280;72328;49.570;8.722;2023-11-22T08:18:30;100752.53;;;8.07;59.83
46366;BME280;72328;49.570;8.722;2023-11-22T08:22:32;100752.41;;;8.31;60.33
46366;BME280;72328;49.570;8.722;2023-11-22T08:26:35;100757.66;;;8.48;60.00
46366;BME280;72328;49.570;8.722;2023-11-22T08:30:36;100773.56;;;8.56;59.74
46366;BME280;72328;49.570;8.722;2023-11-22T08:34:37;100771.44;;;8.66;59.65
46366;BME280;72328;49.570;8.722;2023-11-22T08:38:41;100782.34;;;8.71;59.20
46366;BME280;72328;49.570;8.722;2023-11-22T08:42:43;100782.84;;;8.79;59.09
46366;BME280;72328;49.570;8.722;2023-11-22T08:46:44;100780.06;;;8.83;58.62
46366;BME280;72328;49.570;8.722;2023-11-22T08:50:44;100774.13;;;8.83;58.59
46366;BME280;72328;49.570;8.722;2023-11-22T08:54:45;100772.38;;;8.83;58.94
46366;BME280;72328;49.570;8.722;2023-11-22T08:58:46;100772.13;;;8.89;58.89
46366;BME280;72328;49.570;8.722;2023-11-22T09:02:47;100781.22;;;8.96;59.12
46366;BME280;72328;49.570;8.722;2023-11-22T09:06:48;100777.19;;;9.09;59.05
46366;BME280;72328;49.570;8.722;2023-11-22T09:10:49;100782.97;;;9.14;59.31
46366;BME280;72328;49.570;8.722;2023-11-22T09:14:51;100786.94;;;9.21;60.09
46366;BME280;72328;49.570;8.722;2023-11-22T09:18:51;100805.91;;;9.37;60.52
46366;BME280;72328;49.570;8.722;2023-11-22T09:22:54;100805.13;;;9.54;61.22
46366;BME280;72328;49.570;8.722;2023-11-22T09:26:55;100801.72;;;9.72;61.31
46366;BME280;72328;49.570;8.722;2023-11-22T09:30:56;100805.16;;;9.89;61.31
46366;BME280;72328;49.570;8.722;2023-11-22T09:35:06;100799.25;;;10.06;61.09
46366;BME280;72328;49.570;8.722;2023-11-22T09:39:08;100788.16;;;10.22;60.76
46366;BME280;72328;49.570;8.722;2023-11-22T09:43:13;100803.34;;;10.44;60.29
46366;BME280;72328;49.570;8.722;2023-11-22T09:47:20;100809.59;;;10.57;59.71
46366;BME280;72328;49.570;8.722;2023-11-22T09:51:23;100803.28;;;10.79;59.46
46366;BME280;72328;49.570;8.722;2023-11-22T09:55:26;100820.59;;;11.25;58.03
46366;BME280;72328;49.570;8.722;2023-11-22T09:59:28;100821.91;;;11.17;59.22
46366;BME280;72328;49.570;8.722;2023-11-22T10:03:30;100831.81;;;11.24;59.54
46366;BME280;72328;49.570;8.722;2023-11-22T10:07:30;100834.84;;;11.32;59.71
46366;BME280;72328;49.570;8.722;2023-11-22T10:11:32;100816.53;;;11.37;59.56
46366;BME280;72328;49.570;8.722;2023-11-22T10:15:33;100817.31;;;11.54;59.88
46366;BME280;72328;49.570;8.722;2023-11-22T10:19:34;100811.50;;;11.66;59.94
46366;BME280;72328;49.570;8.722;2023-11-22T10:23:35;100820.91;;;11.83;59.66
46366;BME280;72328;49.570;8.722;2023-11-22T10:27:40;100827.63;;;12.01;59.83
46366;BME280;72328;49.570;8.722;2023-11-22T10:31:41;100827.78;;;12.13;59.36
46366;BME280;72328;49.570;8.722;2023-11-22T10:35:47;100847.59;;;12.28;59.48
46366;BME280;72328;49.570;8.722;2023-11-22T10:39:51;100857.56;;;12.34;59.00
46366;BME280;72328;49.570;8.722;2023-11-22T10:43:52;100852.91;;;12.25;58.78
46366;BME280;72328;49.570;8.722;2023-11-22T10:47:56;100876.50;;;12.19;58.43
46366;BME280;72328;49.570;8.722;2023-11-22T10:51:58;100865.84;;;12.10;58.65
46366;BME280;72328;49.570;8.722;2023-11-22T10:56:17;100861.19;;;12.01;58.09
46366;BME280;72328;49.570;8.722;2023-11-22T11:00:20;100853.28;;;11.88;57.65
46366;BME280;72328;49.570;8.722;2023-11-22T11:04:39;100864.28;;;11.76;57.87
46366;BME280;72328;49.570;8.722;2023-11-22T11:08:43;100884.59;;;11.67;57.20
46366;BME280;72328;49.570;8.722;2023-11-22T11:12:44;100890.34;;;11.55;56.91
46366;BME280;72328;49.570;8.722;2023-11-22T11:16:45;100891.91;;;11.42;56.92
46366;BME280;72328;49.570;8.722;2023-11-22T11:20:51;100885.56;;;11.32;56.77
46366;BME280;72328;49.570;8.722;2023-11-22T11:25:04;100881.84;;;11.20;56.77
46366;BME280;72328;49.570;8.722;2023-11-22T11:29:04;100885.91;;;11.09;56.35
46366;BME280;72328;49.570;8.722;2023-11-22T11:33:06;100893.56;;;10.93;56.64
46366;BME280;72328;49.570;8.722;2023-11-22T11:37:08;100906.09;;;10.84;56.46
46366;BME280;72328;49.570;8.722;2023-11-22T11:41:13;100903.88;;;10.76;56.61
46366;BME280;72328;49.570;8.722;2023-11-22T11:45:14;100905.97;;;10.68;56.80
46366;BME280;72328;49.570;8.722;2023-11-22T11:49:15;100912.28;;;10.63;56.81
46366;BME280;72328;49.570;8.722;2023-11-22T11:53:19;100907.28;;;10.60;56.80
46366;BME280;72328;49.570;8.722;2023-11-22T11:57:21;100916.34;;;10.50;56.85
46366;BME280;72328;49.570;8.722;2023-11-22T12:01:22;100932.94;;;10.44;57.28
46366;BME280;72328;49.570;8.722;2023-11-22T12:05:23;100937.03;;;10.48;57.46
46366;BME280;72328;49.570;8.722;2023-11-22T12:09:26;100924.84;;;10.52;57.60
46366;BME280;72328;49.570;8.722;2023-11-22T12:13:26;100910.22;;;10.52;57.25
46366;BME280;72328;49.570;8.722;2023-11-22T12:17:27;100908.41;;;10.54;57.61
46366;BME280;72328;49.570;8.722;2023-11-22T12:21:29;100903.41;;;10.51;57.22
46366;BME280;72328;49.570;8.722;2023-11-22T12:25:31;100917.88;;;10.54;57.37
46366;BME280;72328;49.570;8.722;2023-11-22T12:29:31;100909.16;;;10.56;57.31
46366;BME280;72328;49.570;8.722;2023-11-22T12:33:32;100888.44;;;10.59;56.92
46366;BME280;72328;49.570;8.722;2023-11-22T12:37:34;100873.59;;;10.64;56.80
46366;BME280;72328;49.570;8.722;2023-11-22T12:41:35;100864.94;;;10.65;56.56
46366;BME280;72328;49.570;8.722;2023-11-22T12:45:36;100863.13;;;10.67;56.87
46366;BME280;72328;49.570;8.722;2023-11-22T12:49:45;100869.19;;;10.66;56.74
46366;BME280;72328;49.570;8.722;2023-11-22T12:53:46;100876.91;;;10.66;56.77
46366;BME280;72328;49.570;8.722;2023-11-22T12:57:57;100878.56;;;10.67;56.41
46366;BME280;72328;49.570;8.722;2023-11-22T13:02:00;100889.91;;;10.63;56.52
46366;BME280;72328;49.570;8.722;2023-11-22T13:06:01;100889.19;;;10.61;56.10
46366;BME280;72328;49.570;8.722;2023-11-22T13:10:01;100897.94;;;10.57;56.07
46366;BME280;72328;49.570;8.722;2023-11-22T13:14:03;100898.31;;;10.50;55.63
46366;BME280;72328;49.570;8.722;2023-11-22T13:18:04;100895.13;;;10.45;55.91
46366;BME280;72328;49.570;8.722;2023-11-22T13:22:11;100893.75;;;10.38;55.98
46366;BME280;72328;49.570;8.722;2023-11-22T13:26:12;100890.63;;;10.31;55.34
46366;BME280;72328;49.570;8.722;2023-11-22T13:30:17;100884.88;;;10.26;55.66
46366;BME280;72328;49.570;8.722;2023-11-22T13:34:23;100899.56;;;10.24;55.50
46366;BME280;72328;49.570;8.722;2023-11-22T13:38:23;100876.56;;;10.21;55.52
46366;BME280;72328;49.570;8.722;2023-11-22T13:42:24;100873.38;;;10.16;55.47
46366;BME280;72328;49.570;8.722;2023-11-22T13:46:25;100861.38;;;10.15;55.47
46366;BME280;72328;49.570;8.722;2023-11-22T13:50:26;100850.28;;;10.15;55.33
46366;BME280;72328;49.570;8.722;2023-11-22T13:54:27;100866.41;;;10.18;55.49
46366;BME280;72328;49.570;8.722;2023-11-22T13:58:28;100861.19;;;10.20;55.80
46366;BME280;72328;49.570;8.722;2023-11-22T14:02:32;100862.09;;;10.19;55.29
46366;BME280;72328;49.570;8.722;2023-11-22T14:06:33;100839.00;;;10.17;55.16
46366;BME280;72328;49.570;8.722;2023-11-22T14:10:33;100837.34;;;10.16;55.38
46366;BME280;72328;49.570;8.722;2023-11-22T14:14:34;100857.03;;;10.17;55.38
46366;BME280;72328;49.570;8.722;2023-11-22T14:18:35;100880.13;;;10.19;55.16
46366;BME280;72328;49.570;8.722;2023-11-22T14:22:35;100891.38;;;10.16;55.34
46366;BME280;72328;49.570;8.722;2023-11-22T14:26:36;100870.81;;;10.16;54.96
46366;BME280;72328;49.570;8.722;2023-11-22T14:30:37;100878.59;;;10.15;55.07
46366;BME280;72328;49.570;8.722;2023-11-22T14:34:38;100889.84;;;10.12;54.64
46366;BME280;72328;49.570;8.722;2023-11-22T14:38:41;100898.50;;;10.11;54.75
46366;BME280;72328;49.570;8.722;2023-11-22T14:42:43;100896.97;;;10.07;54.84
46366;BME280;72328;49.570;8.722;2023-11-22T14:46:49;100887.56;;;10.06;55.01
46366;BME280;72328;49.570;8.722;2023-11-22T14:50:50;100862.84;;;10.02;54.91
46366;BME280;72328;49.570;8.722;2023-11-22T14:54:52;100864.75;;;9.99;54.56
46366;BME280;72328;49.570;8.722;2023-11-22T14:58:54;100876.47;;;9.86;54.28
46366;BME280;72328;49.570;8.722;2023-11-22T15:02:55;100871.78;;;9.77;54.77
46366;BME280;72328;49.570;8.722;2023-11-22T15:06:56;100868.66;;;9.70;54.88
46366;BME280;72328;49.570;8.722;2023-11-22T15:10:57;100872.25;;;9.66;54.44
46366;BME280;72328;49.570;8.722;2023-11-22T15:14:57;100882.59;;;9.65;54.30
46366;BME280;72328;49.570;8.722;2023-11-22T15:18:59;100878.53;;;9.61;54.18
46366;BME280;72328;49.570;8.722;2023-11-22T15:23:03;100895.03;;;9.55;53.96
46366;BME280;72328;49.570;8.722;2023-11-22T15:27:04;100902.28;;;9.47;54.16
46366;BME280;72328;49.570;8.722;2023-11-22T15:31:04;100918.66;;;9.45;53.85
46366;BME280;72328;49.570;8.722;2023-11-22T15:35:05;100921.41;;;9.40;53.90
46366;BME280;72328;49.570;8.722;2023-11-22T15:39:06;100924.25;;;9.34;54.18
46366;BME280;72328;49.570;8.722;2023-11-22T15:43:12;100926.94;;;9.31;53.69
46366;BME280;72328;49.570;8.722;2023-11-22T15:47:12;100940.00;;;9.27;53.96
46366;BME280;72328;49.570;8.722;2023-11-22T15:51:13;100931.81;;;9.19;53.84
46366;BME280;72328;49.570;8.722;2023-11-22T15:55:16;100941.34;;;9.15;53.94
46366;BME280;72328;49.570;8.722;2023-11-22T15:59:18;100946.84;;;9.08;53.73
46366;BME280;72328;49.570;8.722;2023-11-22T16:03:20;100946.09;;;9.04;53.59
46366;BME280;72328;49.570;8.722;2023-11-22T16:07:22;100960.00;;;9.00;53.94
46366;BME280;72328;49.570;8.722;2023-11-22T16:11:23;100972.19;;;8.95;53.85
46366;BME280;72328;49.570;8.722;2023-11-22T16:15:23;100966.41;;;8.90;54.06
46366;BME280;72328;49.570;8.722;2023-11-22T16:19:24;100971.13;;;8.79;53.76
46366;BME280;72328;49.570;8.722;2023-11-22T16:23:25;100984.19;;;8.73;53.63
46366;BME280;72328;49.570;8.722;2023-11-22T16:27:26;100981.00;;;8.68;53.89
46366;BME280;72328;49.570;8.722;2023-11-22T16:31:26;100979.50;;;8.63;54.09
46366;BME280;72328;49.570;8.722;2023-11-22T16:35:27;100977.03;;;8.60;53.81
46366;BME280;72328;49.570;8.722;2023-11-22T16:39:32;100994.22;;;8.58;53.86
46366;BME280;72328;49.570;8.722;2023-11-22T16:43:33;100988.44;;;8.53;53.75
46366;BME280;72328;49.570;8.722;2023-11-22T16:47:34;100983.31;;;8.53;53.89
46366;BME280;72328;49.570;8.722;2023-11-22T16:51:35;100991.84;;;8.53;53.94
46366;BME280;72328;49.570;8.722;2023-11-22T16:55:35;100988.56;;;8.50;54.05
46366;BME280;72328;49.570;8.722;2023-11-22T16:59:36;101004.84;;;8.49;53.82
46366;BME280;72328;49.570;8.722;2023-11-22T17:03:37;100998.09;;;8.46;53.91
46366;BME280;72328;49.570;8.722;2023-11-22T17:07:41;100999.03;;;8.44;53.78
46366;BME280;72328;49.570;8.722;2023-11-22T17:11:41;100980.44;;;8.39;53.74
46366;BME280;72328;49.570;8.722;2023-11-22T17:15:43;100986.50;;;8.36;53.58
46366;BME280;72328;49.570;8.722;2023-11-22T17:19:44;100973.81;;;8.33;53.79
46366;BME280;72328;49.570;8.722;2023-11-22T17:23:47;100978.22;;;8.30;53.65
46366;BME280;72328;49.570;8.722;2023-11-22T17:27:47;100978.34;;;8.27;53.72
46366;BME280;72328;49.570;8.722;2023-11-22T17:31:48;100979.34;;;8.23;53.68
46366;BME280;72328;49.570;8.722;2023-11-22T17:35:49;100974.34;;;8.18;53.88
46366;BME280;72328;49.570;8.722;2023-11-22T17:39:50;100972.97;;;8.10;53.63
46366;BME280;72328;49.570;8.722;2023-11-22T17:43:52;100976.44;;;8.09;53.62
46366;BME280;72328;49.570;8.722;2023-11-22T17:47:52;100961.56;;;7.95;53.91
46366;BME280;72328;49.570;8.722;2023-11-22T17:51:53;100974.25;;;7.98;53.91
46366;BME280;72328;49.570;8.722;2023-11-22T17:55:55;100965.91;;;7.93;53.65
46366;BME280;72328;49.570;8.722;2023-11-22T17:59:55;100968.59;;;7.90;53.81
46366;BME280;72328;49.570;8.722;2023-11-22T18:03:56;100981.50;;;7.87;53.79
46366;BME280;72328;49.570;8.722;2023-11-22T18:07:57;100973.09;;;7.84;53.70
46366;BME280;72328;49.570;8.722;2023-11-22T18:11:58;100972.38;;;7.80;53.72
46366;BME280;72328;49.570;8.722;2023-11-22T18:16:00;100973.31;;;7.78;53.48
46366;BME280;72328;49.570;8.722;2023-11-22T18:20:01;100970.09;;;7.73;53.54
46366;BME280;72328;49.570;8.722;2023-11-22T18:24:04;100977.03;;;7.69;53.66
46366;BME280;72328;49.570;8.722;2023-11-22T18:28:05;100987.34;;;7.68;53.45
46366;BME280;72328;49.570;8.722;2023-11-22T18:32:09;101001.09;;;7.65;53.47
46366;BME280;72328;49.570;8.722;2023-11-22T18:36:10;100998.63;;;7.62;53.77
46366;BME280;72328;49.570;8.722;2023-11-22T18:40:11;100978.25;;;7.59;53.64
46366;BME280;72328;49.570;8.722;2023-11-22T18:44:11;100981.84;;;7.54;53.56
46366;BME280;72328;49.570;8.722;2023-11-22T18:48:13;100993.84;;;7.53;53.52
46366;BME280;72328;49.570;8.722;2023-11-22T18:52:14;100999.06;;;7.50;53.72
46366;BME280;72328;49.570;8.722;2023-11-22T18:56:14;100984.69;;;7.46;53.66
46366;BME280;72328;49.570;8.722;2023-11-22T19:00:15;100990.75;;;7.44;53.81
46366;BME280;72328;49.570;8.722;2023-11-22T19:04:16;100986.56;;;7.41;53.52
46366;BME280;72328;49.570;8.722;2023-11-22T19:08:18;100972.09;;;7.40;53.56
46366;BME280;72328;49.570;8.722;2023-11-22T19:12:19;100972.25;;;7.36;53.45
46366;BME280;72328;49.570;8.722;2023-11-22T19:16:20;100962.06;;;7.34;53.76
46366;BME280;72328;49.570;8.722;2023-11-22T19:20:23;100969.00;;;7.31;53.82
46366;BME280;72328;49.570;8.722;2023-11-22T19:24:27;100970.84;;;7.27;53.70
46366;BME280;72328;49.570;8.722;2023-11-22T19:28:28;100961.50;;;7.26;53.82
46366;BME280;72328;49.570;8.722;2023-11-22T19:32:29;100951.31;;;7.25;53.89
46366;BME280;72328;49.570;8.722;2023-11-22T19:36:29;100949.56;;;7.25;53.70
46366;BME280;72328;49.570;8.722;2023-11-22T19:40:34;100946.22;;;7.23;53.90
46366;BME280;72328;49.570;8.722;2023-11-22T19:44:35;100936.81;;;7.24;53.72
46366;BME280;72328;49.570;8.722;2023-11-22T19:48:36;100940.31;;;7.21;53.90
46366;BME280;72328;49.570;8.722;2023-11-22T19:52:37;100935.25;;;7.20;53.91
46366;BME280;72328;49.570;8.722;2023-11-22T19:56:37;100928.50;;;7.17;54.09
46366;BME280;72328;49.570;8.722;2023-11-22T20:00:39;100925.09;;;7.17;53.85
46366;BME280;72328;49.570;8.722;2023-11-22T20:04:40;100922.53;;;7.17;54.08
46366;BME280;72328;49.570;8.722;2023-11-22T20:08:41;100930.22;;;7.17;54.05
46366;BME280;72328;49.570;8.722;2023-11-22T20:12:42;100939.66;;;7.16;54.26
46366;BME280;72328;49.570;8.722;2023-11-22T20:16:42;100934.56;;;7.15;54.14
46366;BME280;72328;49.570;8.722;2023-11-22T20:20:43;100944.78;;;7.16;53.87
46366;BME280;72328;49.570;8.722;2023-11-22T20:24:44;100940.53;;;7.15;54.00
46366;BME280;72328;49.570;8.722;2023-11-22T20:28:44;100939.94;;;7.07;54.01
46366;BME280;72328;49.570;8.722;2023-11-22T20:32:45;100945.75;;;7.12;54.22
46366;BME280;72328;49.570;8.722;2023-11-22T20:36:46;100956.97;;;7.08;54.08
46366;BME280;72328;49.570;8.722;2023-11-22T20:40:46;100954.41;;;7.08;53.83
46366;BME280;72328;49.570;8.722;2023-11-22T20:44:48;100955.31;;;7.07;53.70
46366;BME280;72328;49.570;8.722;2023-11-22T20:48:48;100960.53;;;7.04;53.72
46366;BME280;72328;49.570;8.722;2023-11-22T20:52:49;100952.06;;;7.02;53.89
46366;BME280;72328;49.570;8.722;2023-11-22T20:56:50;100943.66;;;6.99;53.62
46366;BME280;72328;49.570;8.722;2023-11-22T21:00:50;100939.47;;;6.96;53.67
46366;BME280;72328;49.570;8.722;2023-11-22T21:04:51;100938.00;;;6.89;53.84
46366;BME280;72328;49.570;8.722;2023-11-22T21:08:52;100937.13;;;6.90;54.02
46366;BME280;72328;49.570;8.722;2023-11-22T21:12:53;100916.84;;;6.84;53.83
46366;BME280;72328;49.570;8.722;2023-11-22T21:16:53;100916.13;;;6.81;53.81